createdAt,value
2017-02-18T00:00:10.846Z,31.24
2017-02-18T00:01:19.989Z,31.24
2017-02-18T00:02:30.320Z,31.32
2017-02-18T00:03:39.894Z,31.52
2017-02-18T00:04:49.818Z,31.14
2017-02-18T00:05:59.784Z,31.62
2017-02-18T00:07:09.319Z,31.22
2017-02-18T00:08:19.220Z,31.22
2017-02-18T00:09:28.817Z,31.24
2017-02-18T00:10:38.742Z,31.33
2017-02-18T00:11:49.097Z,31.32
2017-02-18T00:12:58.266Z,31.32
2017-02-18T00:14:07.052Z,31.43
2017-02-18T00:15:16.591Z,31.51
2017-02-18T00:16:26.497Z,31.51
2017-02-18T00:17:36.083Z,31.51
2017-02-18T00:18:46.457Z,31.6
2017-02-18T00:19:55.689Z,31.7
2017-02-18T00:21:05.245Z,31.52
2017-02-18T00:22:15.785Z,31.24
2017-02-18T00:23:25.512Z,31.22
2017-02-18T00:24:35.461Z,31.32
2017-02-18T00:25:45.077Z,31.22
2017-02-18T00:26:54.247Z,31.22
2017-02-18T00:28:04.198Z,31.32
2017-02-18T00:29:14.139Z,31.32
2017-02-18T00:30:23.304Z,31.12
2017-02-18T00:31:32.468Z,31.9
2017-02-18T00:32:42.415Z,31.6
2017-02-18T00:33:52.742Z,31.6
2017-02-18T00:35:02.681Z,31.41
2017-02-18T00:36:12.268Z,31.51
2017-02-18T00:37:21.435Z,31.41
2017-02-18T00:38:31.000Z,31.51
2017-02-18T00:39:41.310Z,31.51
2017-02-18T00:40:50.825Z,31.41
2017-02-18T00:42:00.805Z,31.51
2017-02-18T00:43:10.367Z,31.6
2017-02-18T00:44:19.569Z,31.51
2017-02-18T00:45:29.524Z,31.51
2017-02-18T00:46:38.710Z,31.6
2017-02-18T00:47:48.287Z,31.99
2017-02-18T00:48:57.809Z,31.51
2017-02-18T00:50:07.312Z,31.51
2017-02-18T00:51:16.880Z,31.51
2017-02-18T00:52:27.217Z,31.7
2017-02-18T00:53:36.386Z,31.6
2017-02-18T00:54:45.955Z,31.6
2017-02-18T00:55:56.291Z,31.7
2017-02-18T00:57:05.857Z,31.6
2017-02-18T00:58:15.792Z,31.6
2017-02-18T00:59:24.948Z,31.9
2017-02-18T01:00:34.091Z,31.6
2017-02-18T01:01:44.036Z,31.7
2017-02-18T01:02:54.387Z,31.9
2017-02-18T01:04:03.954Z,31.8
2017-02-18T01:05:13.889Z,31.6
2017-02-18T01:06:24.366Z,31.7
2017-02-18T01:07:33.941Z,31.7
2017-02-18T01:08:43.113Z,31.7
2017-02-18T01:09:52.678Z,31.7
2017-02-18T01:11:03.018Z,31.9
2017-02-18T01:12:13.342Z,31.9
2017-02-18T01:13:23.273Z,31.9
2017-02-18T01:14:32.467Z,31.7
2017-02-18T01:15:42.051Z,31.99
2017-02-18T01:16:51.617Z,31.9
2017-02-18T01:18:01.575Z,31.7
2017-02-18T01:19:11.528Z,31.9
2017-02-18T01:20:21.102Z,31.8
2017-02-18T01:21:30.659Z,31.9
2017-02-18T01:22:39.450Z,31.8
2017-02-18T01:23:49.007Z,31.8
2017-02-18T01:24:58.590Z,31.8
2017-02-18T01:26:08.124Z,31.7
2017-02-18T01:27:18.059Z,31.7
2017-02-18T01:28:28.395Z,31.7
2017-02-18T01:29:37.921Z,31.9
2017-02-18T01:30:47.814Z,31.9
2017-02-18T01:31:57.775Z,31.9
2017-02-18T01:33:08.136Z,31.7
2017-02-18T01:34:18.466Z,31.9
2017-02-18T01:35:28.039Z,31.9
2017-02-18T01:36:37.241Z,31.9
2017-02-18T01:37:47.199Z,31.8
2017-02-18T01:38:56.750Z,32.09
2017-02-18T01:40:06.707Z,31.9
2017-02-18T01:41:16.750Z,31.7
2017-02-18T01:42:27.464Z,31.7
2017-02-18T01:43:36.238Z,31.69
2017-02-18T01:44:45.372Z,31.99
2017-02-18T01:45:55.302Z,31.7
2017-02-18T01:47:04.815Z,32.09
2017-02-18T01:48:14.770Z,31.9
2017-02-18T01:49:24.372Z,32.09
2017-02-18T01:50:34.319Z,31.69
2017-02-18T01:51:43.507Z,31.69
2017-02-18T01:52:52.675Z,32.07
2017-02-18T01:54:02.643Z,31.78
2017-02-18T01:55:11.811Z,32.26
2017-02-18T01:56:21.465Z,32.07
2017-02-18T01:57:30.646Z,31.88
2017-02-18T01:58:40.580Z,31.98
2017-02-18T01:59:50.147Z,32.07
2017-02-18T02:01:00.102Z,32.17
2017-02-18T02:02:09.653Z,31.98
2017-02-18T02:03:19.222Z,32.17
2017-02-18T02:04:29.543Z,31.88
2017-02-18T02:05:38.727Z,32.17
2017-02-18T02:06:47.900Z,32.17
2017-02-18T02:07:57.867Z,32.17
2017-02-18T02:09:07.815Z,32.17
2017-02-18T02:10:16.990Z,31.98
2017-02-18T02:11:26.926Z,31.98
2017-02-18T02:12:37.256Z,32.07
2017-02-18T02:13:46.419Z,32.17
2017-02-18T02:14:55.560Z,32.17
2017-02-18T02:16:04.688Z,31.78
2017-02-18T02:17:13.853Z,31.78
2017-02-18T02:18:23.010Z,32.17
2017-02-18T02:19:32.146Z,31.88
2017-02-18T02:20:40.942Z,31.78
2017-02-18T02:21:50.116Z,32.26
2017-02-18T02:22:59.329Z,32.07
2017-02-18T02:24:09.278Z,32.17
2017-02-18T02:25:18.492Z,32.17
2017-02-18T02:26:27.657Z,32.17
2017-02-18T02:27:37.227Z,32.07
2017-02-18T02:28:47.148Z,31.98
2017-02-18T02:29:56.668Z,32.17
2017-02-18T02:31:06.636Z,32.17
2017-02-18T02:32:16.963Z,32.26
2017-02-18T02:33:26.125Z,32.17
2017-02-18T02:34:35.645Z,32.17
2017-02-18T02:35:45.611Z,32.17
2017-02-18T02:36:55.156Z,32.07
2017-02-18T02:38:03.946Z,32.17
2017-02-18T02:39:13.902Z,32.07
2017-02-18T02:40:23.865Z,32.17
2017-02-18T02:41:33.019Z,32.17
2017-02-18T02:42:42.524Z,32.07
2017-02-18T02:43:52.123Z,32.07
2017-02-18T02:45:02.076Z,32.36
2017-02-18T02:46:11.664Z,32.26
2017-02-18T02:47:21.190Z,32.17
2017-02-18T02:48:30.694Z,32.26
2017-02-18T02:49:39.499Z,32.17
2017-02-18T02:50:48.870Z,32.26
2017-02-18T02:51:58.775Z,32.07
2017-02-18T02:53:08.348Z,32.17
2017-02-18T02:54:17.515Z,32.17
2017-02-18T02:55:26.691Z,32.26
2017-02-18T02:56:36.245Z,32.17
2017-02-18T02:57:45.799Z,32.07
2017-02-18T02:58:54.973Z,32.07
2017-02-18T03:00:04.535Z,32.26
2017-02-18T03:01:14.086Z,32.36
2017-02-18T03:02:23.610Z,32.26
2017-02-18T03:03:32.741Z,32.26
2017-02-18T03:04:41.916Z,31.98
2017-02-18T03:05:51.882Z,32.26
2017-02-18T03:07:01.830Z,32.26
2017-02-18T03:08:12.102Z,32.26
2017-02-18T03:09:21.225Z,32.36
2017-02-18T03:10:31.093Z,32.26
2017-02-18T03:11:41.376Z,32.46
2017-02-18T03:12:51.705Z,32.36
2017-02-18T03:14:02.045Z,32.17
2017-02-18T03:15:12.016Z,32.26
2017-02-18T03:16:21.954Z,32.26
2017-02-18T03:17:31.144Z,32.07
2017-02-18T03:18:41.474Z,32.07
2017-02-18T03:19:51.018Z,32.36
2017-02-18T03:21:00.205Z,32.36
2017-02-18T03:22:09.784Z,32.36
2017-02-18T03:23:18.582Z,32.36
2017-02-18T03:24:28.538Z,32.17
2017-02-18T03:25:39.220Z,32.36
2017-02-18T03:26:49.124Z,32.36
2017-02-18T03:27:59.076Z,32.36
2017-02-18T03:29:09.016Z,32.46
2017-02-18T03:30:18.195Z,32.46
2017-02-18T03:31:28.133Z,32.36
2017-02-18T03:32:38.002Z,32.46
2017-02-18T03:33:47.515Z,32.46
2017-02-18T03:34:57.857Z,32.46
2017-02-18T03:36:07.782Z,32.36
2017-02-18T03:37:16.938Z,32.36
2017-02-18T03:38:27.658Z,32.46
2017-02-18T03:39:37.613Z,32.46
2017-02-18T03:40:47.549Z,32.36
2017-02-18T03:41:58.280Z,32.26
2017-02-18T03:43:07.832Z,32.36
2017-02-18T03:44:17.012Z,32.36
2017-02-18T03:45:26.974Z,32.36
2017-02-18T03:46:35.776Z,32.26
2017-02-18T03:47:45.363Z,32.46
2017-02-18T03:48:55.321Z,32.46
2017-02-18T03:50:05.279Z,32.56
2017-02-18T03:51:15.629Z,32.46
2017-02-18T03:52:25.181Z,32.56
2017-02-18T03:53:34.747Z,32.36
2017-02-18T03:54:44.294Z,32.46
2017-02-18T03:55:54.619Z,32.46
2017-02-18T03:57:10.562Z,32.26
2017-02-18T03:58:20.321Z,32.46
2017-02-18T03:59:29.878Z,32.36
2017-02-18T04:00:39.818Z,32.36
2017-02-18T04:01:49.352Z,32.26
2017-02-18T04:02:58.475Z,32.36
2017-02-18T04:04:08.427Z,32.34
2017-02-18T04:05:18.363Z,32.17
2017-02-18T04:06:28.624Z,32.34
2017-02-18T04:07:38.898Z,32.65
2017-02-18T04:08:48.838Z,32.46
2017-02-18T04:09:58.393Z,32.46
2017-02-18T04:11:07.940Z,32.46
2017-02-18T04:12:18.639Z,32.44
2017-02-18T04:13:29.344Z,32.44
2017-02-18T04:14:39.298Z,32.46
2017-02-18T04:15:49.259Z,32.44
2017-02-18T04:16:59.596Z,32.44
2017-02-18T04:18:09.949Z,32.54
2017-02-18T04:19:19.538Z,32.44
2017-02-18T04:20:29.092Z,32.65
2017-02-18T04:21:39.035Z,32.56
2017-02-18T04:22:48.207Z,32.64
2017-02-18T04:23:57.756Z,32.64
2017-02-18T04:25:06.932Z,32.54
2017-02-18T04:26:16.878Z,32.64
2017-02-18T04:27:27.154Z,32.44
2017-02-18T04:28:36.311Z,32.73
2017-02-18T04:29:45.870Z,32.64
2017-02-18T04:30:54.651Z,32.64
2017-02-18T04:32:04.219Z,32.44
2017-02-18T04:33:14.126Z,32.64
2017-02-18T04:34:23.020Z,32.54
2017-02-18T04:35:32.543Z,32.64
2017-02-18T04:36:41.679Z,32.34
2017-02-18T04:37:51.995Z,32.54
2017-02-18T04:39:01.877Z,32.64
2017-02-18T04:40:11.771Z,32.54
2017-02-18T04:41:21.935Z,32.54
2017-02-18T04:42:32.263Z,32.64
2017-02-18T04:43:41.823Z,32.54
2017-02-18T04:44:51.383Z,32.73
2017-02-18T04:46:00.561Z,32.54
2017-02-18T04:47:10.097Z,32.54
2017-02-18T04:48:19.609Z,32.64
2017-02-18T04:49:29.563Z,32.44
2017-02-18T04:50:38.347Z,32.64
2017-02-18T04:51:48.754Z,32.64
2017-02-18T04:52:59.075Z,32.64
2017-02-18T04:54:08.661Z,32.64
2017-02-18T04:55:18.206Z,32.64
2017-02-18T04:56:28.149Z,32.54
2017-02-18T04:57:37.731Z,32.64
2017-02-18T04:58:47.679Z,32.64
2017-02-18T04:59:57.220Z,32.64
2017-02-18T05:01:06.749Z,32.54
2017-02-18T05:02:17.071Z,32.54
2017-02-18T05:03:26.650Z,32.64
2017-02-18T05:04:37.365Z,32.44
2017-02-18T05:05:46.928Z,32.54
2017-02-18T05:06:56.486Z,32.44
2017-02-18T05:08:05.656Z,32.54
2017-02-18T05:09:15.201Z,32.54
2017-02-18T05:10:25.410Z,32.64
2017-02-18T05:11:35.342Z,32.54
2017-02-18T05:12:45.681Z,32.64
2017-02-18T05:13:55.250Z,32.64
2017-02-18T05:15:04.806Z,32.64
2017-02-18T05:16:14.368Z,32.64
2017-02-18T05:17:25.094Z,32.54
2017-02-18T05:18:35.470Z,32.64
2017-02-18T05:19:45.039Z,32.54
2017-02-18T05:20:55.001Z,32.54
2017-02-18T05:22:04.935Z,32.54
2017-02-18T05:23:14.493Z,32.54
2017-02-18T05:24:23.271Z,32.64
2017-02-18T05:25:33.600Z,32.64
2017-02-18T05:26:43.163Z,32.44
2017-02-18T05:27:52.343Z,32.64
2017-02-18T05:29:01.873Z,32.25
2017-02-18T05:30:12.152Z,32.64
2017-02-18T05:31:22.255Z,32.44
2017-02-18T05:32:32.211Z,32.54
2017-02-18T05:33:41.395Z,32.44
2017-02-18T05:34:50.560Z,32.34
2017-02-18T05:36:00.123Z,32.26
2017-02-18T05:37:09.673Z,32.26
2017-02-18T05:38:19.441Z,32.17
2017-02-18T05:39:28.972Z,32.34
2017-02-18T05:40:38.132Z,32.26
2017-02-18T05:41:48.090Z,32.17
2017-02-18T05:42:57.646Z,32.17
2017-02-18T05:44:07.564Z,32.26
2017-02-18T05:45:16.704Z,32.26
2017-02-18T05:46:26.220Z,32.17
2017-02-18T05:47:35.009Z,31.78
2017-02-18T05:48:45.335Z,31.78
2017-02-18T05:49:54.873Z,31.78
2017-02-18T05:51:04.791Z,31.69
2017-02-18T05:52:15.078Z,31.88
2017-02-18T05:53:24.978Z,31.98
2017-02-18T05:54:34.554Z,31.69
2017-02-18T05:55:44.497Z,31.78
2017-02-18T05:56:53.276Z,31.4
2017-02-18T05:58:03.226Z,31.49
2017-02-18T05:59:12.783Z,31.4
2017-02-18T06:00:22.737Z,31.49
2017-02-18T06:01:32.713Z,31.49
2017-02-18T06:02:41.888Z,31.49
2017-02-18T06:03:52.223Z,31.59
2017-02-18T06:05:02.145Z,31.3
2017-02-18T06:06:12.651Z,31.69
2017-02-18T06:07:22.598Z,31.49
2017-02-18T06:08:32.543Z,31.4
2017-02-18T06:09:42.875Z,31.41
2017-02-18T06:10:52.423Z,31.51
2017-02-18T06:12:01.568Z,31.22
2017-02-18T06:13:11.089Z,31.12
2017-02-18T06:14:21.047Z,31.41
2017-02-18T06:15:30.239Z,31.51
2017-02-18T06:16:39.425Z,31.32
2017-02-18T06:17:49.368Z,31.22
2017-02-18T06:18:58.539Z,31.12
2017-02-18T06:20:08.477Z,31.03
2017-02-18T06:21:18.047Z,31.12
2017-02-18T06:22:27.961Z,31.32
2017-02-18T06:23:37.475Z,31.03
2017-02-18T06:24:47.434Z,31.03
2017-02-18T06:25:58.115Z,31.12
2017-02-18T06:27:07.637Z,30.83
2017-02-18T06:28:17.559Z,30.64
2017-02-18T06:29:27.090Z,30.64
2017-02-18T06:30:36.263Z,30.64
2017-02-18T06:31:46.269Z,30.64
2017-02-18T06:32:55.040Z,30.74
2017-02-18T06:34:04.230Z,30.74
2017-02-18T06:35:13.807Z,30.83
2017-02-18T06:36:23.729Z,30.83
2017-02-18T06:37:33.232Z,30.55
2017-02-18T06:38:43.168Z,30.45
2017-02-18T06:39:53.703Z,30.35
2017-02-18T06:41:02.888Z,30.45
2017-02-18T06:42:12.461Z,30.93
2017-02-18T06:43:22.018Z,31.03
2017-02-18T06:44:31.571Z,30.45
2017-02-18T06:45:41.137Z,30.45
2017-02-18T06:46:50.340Z,30.55
2017-02-18T06:47:59.919Z,30.56
2017-02-18T06:49:09.837Z,30.66
2017-02-18T06:50:19.753Z,30.46
2017-02-18T06:51:28.932Z,30.74
2017-02-18T06:52:39.255Z,30.85
2017-02-18T06:53:48.868Z,30.66
2017-02-18T06:54:59.597Z,30.76
2017-02-18T06:56:08.780Z,30.66
2017-02-18T06:57:17.957Z,30.56
2017-02-18T06:58:26.737Z,30.76
2017-02-18T06:59:36.278Z,30.76
2017-02-18T07:00:46.192Z,30.85
2017-02-18T07:01:56.143Z,30.46
2017-02-18T07:03:05.342Z,30.66
2017-02-18T07:04:14.883Z,30.46
2017-02-18T07:05:23.619Z,30.46
2017-02-18T07:06:33.518Z,30.56
2017-02-18T07:07:43.069Z,30.66
2017-02-18T07:08:52.619Z,30.76
2017-02-18T07:10:02.140Z,30.76
2017-02-18T07:11:12.026Z,30.56
2017-02-18T07:12:21.243Z,30.66
2017-02-18T07:13:30.767Z,30.37
2017-02-18T07:14:40.723Z,30.27
2017-02-18T07:15:51.052Z,30.37
2017-02-18T07:17:01.054Z,30.18
2017-02-18T07:18:11.352Z,30.56
2017-02-18T07:19:20.855Z,30.56
2017-02-18T07:20:30.762Z,30.08
2017-02-18T07:21:39.927Z,30.18
2017-02-18T07:22:49.120Z,30.27
2017-02-18T07:23:58.319Z,30.46
2017-02-18T07:25:07.871Z,30.27
2017-02-18T07:26:17.435Z,30.37
2017-02-18T07:27:27.770Z,29.89
2017-02-18T07:28:37.349Z,30.37
2017-02-18T07:29:46.909Z,30.27
2017-02-18T07:30:56.482Z,30.27
2017-02-18T07:32:05.668Z,30.29
2017-02-18T07:33:15.627Z,29.89
2017-02-18T07:34:24.770Z,29.98
2017-02-18T07:35:33.877Z,30.18
2017-02-18T07:36:43.786Z,30.1
2017-02-18T07:37:52.920Z,30.08
2017-02-18T07:39:02.038Z,29.9
2017-02-18T07:40:11.394Z,30.18
2017-02-18T07:41:20.965Z,30
2017-02-18T07:42:30.919Z,29.89
2017-02-18T07:43:40.496Z,29.9
2017-02-18T07:44:50.050Z,29.61
2017-02-18T07:45:59.604Z,29.52
2017-02-18T07:47:10.372Z,29.71
2017-02-18T07:48:19.869Z,30.1
2017-02-18T07:49:29.013Z,29.71
2017-02-18T07:50:38.973Z,29.61
2017-02-18T07:51:48.562Z,29.71
2017-02-18T07:52:58.115Z,29.8
2017-02-18T07:54:07.682Z,29.9
2017-02-18T07:55:16.867Z,29.71
2017-02-18T07:56:26.251Z,29.8
2017-02-18T07:57:36.180Z,29.8
2017-02-18T07:58:45.713Z,29.8
2017-02-18T07:59:54.812Z,29.9
2017-02-18T08:01:04.726Z,29.8
2017-02-18T08:02:14.662Z,29.42
2017-02-18T08:03:24.029Z,29.61
2017-02-18T08:04:33.657Z,29.9
2017-02-18T08:05:43.619Z,29.8
2017-02-18T08:06:52.798Z,29.71
2017-02-18T08:08:02.720Z,29.61
2017-02-18T08:09:12.258Z,29.8
2017-02-18T08:10:21.404Z,29.8
2017-02-18T08:11:30.926Z,29.42
2017-02-18T08:12:40.076Z,29.71
2017-02-18T08:13:49.614Z,29.61
2017-02-18T08:14:59.185Z,29.8
2017-02-18T08:16:09.901Z,29.71
2017-02-18T08:17:19.697Z,29.03
2017-02-18T08:18:29.227Z,29.61
2017-02-18T08:19:38.746Z,29.61
2017-02-18T08:20:47.917Z,29.52
2017-02-18T08:21:57.870Z,29.61
2017-02-18T08:23:07.763Z,29.52
2017-02-18T08:24:17.362Z,29.52
2017-02-18T08:25:26.890Z,29.22
2017-02-18T08:26:36.387Z,29.61
2017-02-18T08:27:45.894Z,29.61
2017-02-18T08:28:54.677Z,29.61
2017-02-18T08:30:03.853Z,29.71
2017-02-18T08:31:13.409Z,29.42
2017-02-18T08:32:22.932Z,29.42
2017-02-18T08:33:32.452Z,29.42
2017-02-18T08:34:41.587Z,29.61
2017-02-18T08:35:51.178Z,29.42
2017-02-18T08:37:01.320Z,29.42
2017-02-18T08:38:10.854Z,29.52
2017-02-18T08:39:21.158Z,29.63
2017-02-18T08:40:31.445Z,29.34
2017-02-18T08:41:41.249Z,28.66
2017-02-18T08:42:51.184Z,29.14
2017-02-18T08:44:00.325Z,29.14
2017-02-18T08:45:10.215Z,29.24
2017-02-18T08:46:19.386Z,29.14
2017-02-18T08:47:29.341Z,28.85
2017-02-18T08:48:38.138Z,29.34
2017-02-18T08:49:47.723Z,29.14
2017-02-18T08:50:57.661Z,29.34
2017-02-18T08:52:07.215Z,28.56
2017-02-18T08:53:17.564Z,28.47
2017-02-18T08:54:27.116Z,29.14
2017-02-18T08:55:36.692Z,29.05
2017-02-18T08:56:46.664Z,29.14
2017-02-18T08:57:57.001Z,29.14
2017-02-18T08:59:05.790Z,28.76
2017-02-18T09:00:14.948Z,28.76
2017-02-18T09:01:24.123Z,28.76
2017-02-18T09:02:33.688Z,28.95
2017-02-18T09:03:42.861Z,28.95
2017-02-18T09:04:52.416Z,28.95
2017-02-18T09:06:01.631Z,28.76
2017-02-18T09:07:11.196Z,28.47
2017-02-18T09:08:21.534Z,28.66
2017-02-18T09:09:31.078Z,28.66
2017-02-18T09:10:40.559Z,28.66
2017-02-18T09:11:50.137Z,28.76
2017-02-18T09:12:59.315Z,28.87
2017-02-18T09:14:08.866Z,28.76
2017-02-18T09:15:18.776Z,28.47
2017-02-18T09:16:27.941Z,28.67
2017-02-18T09:17:37.143Z,28.85
2017-02-18T09:18:47.102Z,28.58
2017-02-18T09:19:55.937Z,28.29
2017-02-18T09:21:06.650Z,28.39
2017-02-18T09:22:16.952Z,28.39
2017-02-18T09:23:26.125Z,28.29
2017-02-18T09:24:36.082Z,28.29
2017-02-18T09:25:46.040Z,28.19
2017-02-18T09:26:55.576Z,28.29
2017-02-18T09:28:05.091Z,28.29
2017-02-18T09:29:14.629Z,28.39
2017-02-18T09:30:24.149Z,28.39
2017-02-18T09:31:33.681Z,28.09
2017-02-18T09:32:42.812Z,28.19
2017-02-18T09:33:51.988Z,28.19
2017-02-18T09:35:01.926Z,28.29
2017-02-18T09:36:12.258Z,28.29
2017-02-18T09:37:21.489Z,28.58
2017-02-18T09:38:30.664Z,28.29
2017-02-18T09:39:39.838Z,28.58
2017-02-18T09:40:49.796Z,28.29
2017-02-18T09:42:00.125Z,28.29
2017-02-18T09:43:10.086Z,28.19
2017-02-18T09:44:20.015Z,28.29
2017-02-18T09:45:29.950Z,28.48
2017-02-18T09:46:39.505Z,28.19
2017-02-18T09:47:49.092Z,28
2017-02-18T09:48:59.057Z,28.19
2017-02-18T09:50:08.607Z,28.09
2017-02-18T09:51:17.762Z,28.11
2017-02-18T09:52:26.573Z,28.19
2017-02-18T09:53:36.124Z,28.4
2017-02-18T09:54:45.681Z,27.91
2017-02-18T09:55:55.636Z,27.71
2017-02-18T09:57:05.160Z,27.62
2017-02-18T09:58:14.674Z,28
2017-02-18T09:59:24.217Z,27.72
2017-02-18T10:00:32.976Z,27.92
2017-02-18T10:01:42.142Z,28.02
2017-02-18T10:02:51.309Z,27.82
2017-02-18T10:04:01.638Z,28.39
2017-02-18T10:05:11.590Z,28.02
2017-02-18T10:06:21.166Z,28.02
2017-02-18T10:07:31.081Z,28
2017-02-18T10:08:41.375Z,27.91
2017-02-18T10:09:50.945Z,27.82
2017-02-18T10:11:01.300Z,27.72
2017-02-18T10:12:11.637Z,27.82
2017-02-18T10:13:21.224Z,27.82
2017-02-18T10:14:31.167Z,27.62
2017-02-18T10:15:40.703Z,27.72
2017-02-18T10:16:49.838Z,27.72
2017-02-18T10:17:59.390Z,27.72
2017-02-18T10:19:09.376Z,27.92
2017-02-18T10:20:18.931Z,27.82
2017-02-18T10:21:29.243Z,28.11
2017-02-18T10:22:39.177Z,28.11
2017-02-18T10:23:48.715Z,28.11
2017-02-18T10:24:58.273Z,28.3
2017-02-18T10:26:08.417Z,28.11
2017-02-18T10:27:17.981Z,28.02
2017-02-18T10:28:27.179Z,28.3
2017-02-18T10:29:36.752Z,27.92
2017-02-18T10:30:46.668Z,28.11
2017-02-18T10:31:55.798Z,28.2
2017-02-18T10:33:05.326Z,28.2
2017-02-18T10:34:14.986Z,28.11
2017-02-18T10:35:24.477Z,28.09
2017-02-18T10:36:34.442Z,28.02
2017-02-18T10:37:44.759Z,28.09
2017-02-18T10:38:55.052Z,28
2017-02-18T10:40:04.977Z,28.19
2017-02-18T10:41:14.070Z,28
2017-02-18T10:42:23.255Z,28.19
2017-02-18T10:43:32.797Z,28.19
2017-02-18T10:44:42.312Z,28.39
2017-02-18T10:45:51.506Z,28.67
2017-02-18T10:47:01.848Z,28.29
2017-02-18T10:48:11.396Z,28.67
2017-02-18T10:49:20.563Z,28.29
2017-02-18T10:50:30.272Z,28.58
2017-02-18T10:51:39.051Z,28.67
2017-02-18T10:52:49.409Z,28.29
2017-02-18T10:53:58.981Z,28.2
2017-02-18T10:55:09.317Z,28.39
2017-02-18T10:56:18.899Z,28.2
2017-02-18T10:57:28.615Z,28.19
2017-02-18T10:58:37.796Z,28.4
2017-02-18T10:59:46.993Z,28.09
2017-02-18T11:00:56.520Z,28.3
2017-02-18T11:02:05.654Z,28.4
2017-02-18T11:03:14.478Z,28.11
2017-02-18T11:04:23.657Z,28.02
2017-02-18T11:05:33.613Z,28.02
2017-02-18T11:06:43.181Z,28.2
2017-02-18T11:07:53.109Z,27.82
2017-02-18T11:09:02.623Z,27.82
2017-02-18T11:10:12.150Z,27.72
2017-02-18T11:11:21.674Z,27.62
2017-02-18T11:12:30.877Z,27.72
2017-02-18T11:13:40.851Z,27.92
2017-02-18T11:14:49.989Z,28.02
2017-02-18T11:15:59.520Z,27.72
2017-02-18T11:17:09.833Z,27.72
2017-02-18T11:18:19.379Z,27.72
2017-02-18T11:19:28.566Z,27.62
2017-02-18T11:20:37.728Z,27.72
2017-02-18T11:21:46.520Z,27.62
2017-02-18T11:22:55.686Z,27.92
2017-02-18T11:24:04.849Z,27.92
2017-02-18T11:25:14.342Z,28.02
2017-02-18T11:26:23.839Z,28.02
2017-02-18T11:27:32.579Z,27.62
2017-02-18T11:28:41.714Z,28.02
2017-02-18T11:29:50.899Z,27.72
2017-02-18T11:31:00.836Z,27.72
2017-02-18T11:32:10.003Z,27.82
2017-02-18T11:33:19.143Z,27.82
2017-02-18T11:34:27.871Z,27.62
2017-02-18T11:35:37.391Z,27.72
2017-02-18T11:36:46.517Z,27.72
2017-02-18T11:37:55.732Z,27.62
2017-02-18T11:39:05.671Z,28.02
2017-02-18T11:40:15.611Z,28.02
2017-02-18T11:41:25.532Z,27.82
2017-02-18T11:42:34.728Z,27.82
2017-02-18T11:43:44.663Z,27.72
2017-02-18T11:44:53.407Z,27.72
2017-02-18T11:46:02.938Z,27.72
2017-02-18T11:47:12.451Z,27.82
2017-02-18T11:48:22.031Z,27.72
2017-02-18T11:49:31.607Z,27.62
2017-02-18T11:50:41.173Z,27.72
2017-02-18T11:51:51.094Z,28.02
2017-02-18T11:53:01.784Z,27.62
2017-02-18T11:54:11.314Z,27.62
2017-02-18T11:55:20.070Z,27.72
2017-02-18T11:56:29.987Z,27.92
2017-02-18T11:57:40.724Z,27.92
2017-02-18T11:58:53.870Z,27.92
2017-02-18T12:00:03.426Z,27.62
2017-02-18T12:01:12.988Z,28.02
2017-02-18T12:02:22.140Z,27.62
2017-02-18T12:03:32.307Z,27.72
2017-02-18T12:04:41.896Z,27.72
2017-02-18T12:05:51.049Z,27.62
2017-02-18T12:07:00.547Z,27.72
2017-02-18T12:08:09.694Z,27.72
2017-02-18T12:09:19.257Z,27.92
2017-02-18T12:10:28.067Z,27.92
2017-02-18T12:11:36.846Z,27.72
2017-02-18T12:12:45.595Z,27.82
2017-02-18T12:13:55.752Z,27.82
2017-02-18T12:15:04.925Z,28.02
2017-02-18T12:16:14.096Z,27.62
2017-02-18T12:17:24.492Z,27.82
2017-02-18T12:18:33.271Z,27.92
2017-02-18T12:19:43.232Z,27.62
2017-02-18T12:20:52.786Z,27.62
2017-02-18T12:22:02.346Z,27.82
2017-02-18T12:23:12.268Z,27.92
2017-02-18T12:24:21.407Z,28.11
2017-02-18T12:25:31.363Z,28.2
2017-02-18T12:26:40.866Z,28.11
2017-02-18T12:27:49.621Z,28.02
2017-02-18T12:28:59.140Z,28.11
2017-02-18T12:30:07.928Z,28.11
2017-02-18T12:31:17.435Z,28.4
2017-02-18T12:32:27.365Z,28.3
2017-02-18T12:33:36.540Z,28.11
2017-02-18T12:34:45.761Z,28.11
2017-02-18T12:35:55.327Z,27.92
2017-02-18T12:37:04.496Z,28.02
2017-02-18T12:38:14.430Z,27.92
2017-02-18T12:39:24.811Z,28.2
2017-02-18T12:40:34.369Z,28.2
2017-02-18T12:41:43.968Z,28.11
2017-02-18T12:42:54.692Z,28.09
2017-02-18T12:44:04.636Z,28.3
2017-02-18T12:45:13.825Z,28.29
2017-02-18T12:46:22.984Z,28.29
2017-02-18T12:47:32.549Z,28.11
2017-02-18T12:48:41.723Z,28.3
2017-02-18T12:49:50.511Z,28.4
2017-02-18T12:51:00.829Z,28.39
2017-02-18T12:52:10.399Z,28.29
2017-02-18T12:53:19.976Z,28.02
2017-02-18T12:54:29.548Z,28.3
2017-02-18T12:55:39.115Z,28.2
2017-02-18T12:56:48.274Z,28.19
2017-02-18T12:57:57.799Z,28.3
2017-02-18T12:59:06.995Z,28.29
2017-02-18T13:00:16.543Z,28.5
2017-02-18T13:01:26.119Z,28.3
2017-02-18T13:02:36.073Z,28.39
2017-02-18T13:03:46.422Z,28.19
2017-02-18T13:04:56.759Z,28.29
2017-02-18T13:06:07.115Z,28.29
2017-02-18T13:07:17.048Z,28
2017-02-18T13:08:26.973Z,28
2017-02-18T13:09:36.562Z,28.09
2017-02-18T13:10:46.112Z,28.2
2017-02-18T13:11:56.442Z,28.02
2017-02-18T13:13:05.215Z,28.2
2017-02-18T13:14:15.172Z,28.2
2017-02-18T13:15:25.306Z,28.09
2017-02-18T13:16:35.269Z,28.09
2017-02-18T13:17:45.618Z,28.4
2017-02-18T13:18:54.791Z,28.2
2017-02-18T13:20:03.997Z,28
2017-02-18T13:21:13.939Z,28.19
2017-02-18T13:22:23.469Z,28.19
2017-02-18T13:23:32.653Z,28.58
2017-02-18T13:24:42.206Z,28.19
2017-02-18T13:25:51.766Z,28.19
2017-02-18T13:27:01.696Z,28.59
2017-02-18T13:28:11.225Z,28.09
2017-02-18T13:29:21.372Z,28.3
2017-02-18T13:30:31.305Z,28.19
2017-02-18T13:31:41.268Z,28.19
2017-02-18T13:32:50.821Z,28.2
2017-02-18T13:34:00.394Z,28.19
2017-02-18T13:35:10.351Z,28.4
2017-02-18T13:36:19.124Z,28.58
2017-02-18T13:37:28.683Z,28.48
2017-02-18T13:38:37.847Z,28.59
2017-02-18T13:39:47.782Z,28.58
2017-02-18T13:40:58.119Z,28.29
2017-02-18T13:42:07.672Z,27.91
2017-02-18T13:43:17.226Z,28.19
2017-02-18T13:44:26.713Z,28.02
2017-02-18T13:45:35.907Z,28.2
2017-02-18T13:46:45.858Z,27.92
2017-02-18T13:47:55.369Z,28.5
2017-02-18T13:49:04.549Z,28.3
2017-02-18T13:50:14.113Z,28.2
2017-02-18T13:51:23.309Z,28.4
2017-02-18T13:52:33.283Z,28.2
2017-02-18T13:53:42.868Z,28.19
2017-02-18T13:54:52.062Z,28.2
2017-02-18T13:56:02.388Z,28.3
2017-02-18T13:57:11.945Z,28.2
2017-02-18T13:58:20.743Z,28.3
2017-02-18T13:59:30.318Z,28.11
2017-02-18T14:00:39.478Z,28.3
2017-02-18T14:01:48.621Z,28.2
2017-02-18T14:02:58.575Z,28.29
2017-02-18T14:04:08.131Z,28.4
2017-02-18T14:05:16.971Z,28.29
2017-02-18T14:06:26.537Z,28.3
2017-02-18T14:07:35.696Z,28.3
2017-02-18T14:08:45.251Z,28.48
2017-02-18T14:09:54.042Z,28.39
2017-02-18T14:11:04.379Z,28.29
2017-02-18T14:12:13.947Z,28.39
2017-02-18T14:13:22.773Z,28.5
2017-02-18T14:14:32.190Z,28.48
2017-02-18T14:15:41.349Z,28.19
2017-02-18T14:16:51.223Z,28.29
2017-02-18T14:18:00.770Z,28.19
2017-02-18T14:19:10.710Z,28.09
2017-02-18T14:20:21.011Z,28.3
2017-02-18T14:21:30.197Z,28.09
2017-02-18T14:22:38.962Z,28.2
2017-02-18T14:23:47.906Z,28.4
2017-02-18T14:24:57.059Z,28.39
2017-02-18T14:26:06.947Z,28.4
2017-02-18T14:27:16.865Z,28.3
2017-02-18T14:28:26.804Z,28.4
2017-02-18T14:29:36.372Z,28.29
2017-02-18T14:30:45.933Z,28.29
2017-02-18T14:31:56.278Z,28.29
2017-02-18T14:33:05.468Z,28.39
2017-02-18T14:34:15.419Z,28.29
2017-02-18T14:35:24.996Z,28.19
2017-02-18T14:36:34.172Z,28.29
2017-02-18T14:37:44.135Z,28.29
2017-02-18T14:38:54.095Z,28.29
2017-02-18T14:40:04.033Z,28.19
2017-02-18T14:41:13.590Z,28.39
2017-02-18T14:42:22.364Z,28.58
2017-02-18T14:43:31.934Z,28.39
2017-02-18T14:44:41.509Z,28.39
2017-02-18T14:45:50.681Z,28.58
2017-02-18T14:47:00.251Z,28.77
2017-02-18T14:48:10.196Z,28.29
2017-02-18T14:49:19.370Z,28.77
2017-02-18T14:50:28.556Z,28.48
2017-02-18T14:51:37.730Z,28.48
2017-02-18T14:52:47.505Z,28.58
2017-02-18T14:53:57.049Z,28.48
2017-02-18T14:55:05.796Z,28.58
2017-02-18T14:56:15.763Z,28.77
2017-02-18T14:57:24.927Z,28.67
2017-02-18T14:58:34.674Z,28.67
2017-02-18T14:59:44.242Z,28.48
2017-02-18T15:00:54.186Z,28.77
2017-02-18T15:02:04.889Z,28.58